Terminal Aerodrome Forecast
Issued by NWS Mobile, AL

Home | Current Version | Previous Version | Text Only | Print | Product List | Glossary On
Versions: 1 2 3 4 5 6 7 8 9 10 11 12 13 14 15 16
000
FTUS44 KMOB 272341
TAFPNS
TAF
KPNS 272341Z 2800/2824 20006KT P6SM VCTS SCT030CB BKN070
      TEMPO 2800/2802 VRB20G35KT 2SM +TSRA BKN020 BKN030CB BKN070
     FM280300 VRB03KT P6SM FEW040
     FM281900 23006KT P6SM SCT040 SCT250 PROB30 2819/2823 VRB25KT
      5SM TSRA BKN030CB=

USA.gov is the U.S. government's official web portal to all federal, state and local government web resources and services.